Audubon, Illinois
Current Conditions -  °F | °C
As of 2:35 PM on Tuesday 27 Jan 2015 (Local Time) from KTAZ Reporting Station
Overcast Overcast  
Wind Chill: 25°   Ceiling: 1700
Heat Index: 32°   Visibility: 10mi
Dew Point: 28°   Wind: 8mph
Humidity: 87%   Direction: 350°N
Pressure: 30.19"   Gusts: NA
Location:  39.3183°N, 89.2952°W
Report Text: KTAZ 272035Z AUTO 35007KT 10SM OVC017 00/M02 A3019 RMK AO2
Loading
Personal Weather Stations






























Interactive Weather Map New forecast layout! Learn more

10-Day Weather Forecast

Advertisements
Track Severe Weather on mobile